createdAt,value
2022-08-02T00:02:21.784Z,17.98
2022-08-02T00:04:48.418Z,17.89
2022-08-02T00:07:15.791Z,17.86
2022-08-02T00:09:42.732Z,17.78
2022-08-02T00:12:10.141Z,17.83
2022-08-02T00:14:37.794Z,18.03
2022-08-02T00:17:05.327Z,18.04
2022-08-02T00:19:32.413Z,18.11
2022-08-02T00:21:59.128Z,18.27
2022-08-02T00:24:30.575Z,18.38
2022-08-02T00:26:58.010Z,18.81
2022-08-02T00:29:25.133Z,18.54
2022-08-02T00:31:51.918Z,18.58
2022-08-02T00:34:29.360Z,18.52
2022-08-02T00:36:58.134Z,18.61
2022-08-02T00:39:34.428Z,18.68
2022-08-02T00:42:02.899Z,18.61
2022-08-02T00:44:29.602Z,18.57
2022-08-02T00:46:56.348Z,18.57
2022-08-02T00:49:23.132Z,18.44
2022-08-02T00:51:51.328Z,18.38
2022-08-02T00:54:19.735Z,18.44
2022-08-02T00:56:50.866Z,18.62
2022-08-02T00:59:18.504Z,18.66
2022-08-02T01:01:56.366Z,18.67
2022-08-02T01:04:30.908Z,18.84
2022-08-02T01:06:59.932Z,18.51
2022-08-02T01:09:26.783Z,18.54
2022-08-02T01:11:53.507Z,18.46
2022-08-02T01:14:20.388Z,18.42
2022-08-02T01:17:14.226Z,18.57
2022-08-02T01:19:49.637Z,18.65
2022-08-02T01:22:58.537Z,18.85
2022-08-02T01:26:08.620Z,18.45
2022-08-02T01:28:41.733Z,18.59
2022-08-02T01:31:20.646Z,18.63
2022-08-02T01:34:03.864Z,18.39
2022-08-02T01:36:34.821Z,18.50
2022-08-02T01:39:03.990Z,18.43
2022-08-02T01:41:31.916Z,18.30
2022-08-02T01:43:59.850Z,18.24
2022-08-02T01:46:28.052Z,18.31
2022-08-02T01:48:57.051Z,18.37
2022-08-02T01:51:43.827Z,18.23
2022-08-02T01:54:14.741Z,18.35
2022-08-02T01:56:42.215Z,18.25
2022-08-02T01:59:12.415Z,18.13
2022-08-02T02:01:39.924Z,18.12
2022-08-02T02:04:08.477Z,18.22
2022-08-02T02:06:36.622Z,18.16
2022-08-02T02:09:04.059Z,18.21
2022-08-02T02:12:09.504Z,18.20
2022-08-02T02:14:20.143Z,17.89
2022-08-02T02:16:48.306Z,17.94
2022-08-02T02:19:20.899Z,18.32
2022-08-02T02:21:48.135Z,18.32
2022-08-02T02:24:14.789Z,18.43
2022-08-02T02:26:44.281Z,18.38
2022-08-02T02:29:20.675Z,17.94
2022-08-02T02:31:48.577Z,18.09
2022-08-02T02:34:17.437Z,18.01
2022-08-02T02:36:48.548Z,18.02
2022-08-02T02:39:16.114Z,18.00
2022-08-02T02:41:43.672Z,17.92
2022-08-02T02:44:14.146Z,17.99
2022-08-02T02:46:41.604Z,17.96
2022-08-02T02:49:10.687Z,18.07
2022-08-02T02:51:40.000Z,17.98
2022-08-02T02:54:33.644Z,18.05
2022-08-02T02:56:55.793Z,18.04
2022-08-02T02:59:22.489Z,17.92
2022-08-02T03:01:56.809Z,17.90
2022-08-02T03:04:25.421Z,17.86
2022-08-02T03:06:52.120Z,17.84
2022-08-02T03:09:18.845Z,17.89
2022-08-02T03:11:45.825Z,17.69
2022-08-02T03:14:13.044Z,17.72
2022-08-02T03:16:47.997Z,17.72
2022-08-02T03:19:15.217Z,17.71
2022-08-02T03:21:42.991Z,17.83
2022-08-02T03:24:10.187Z,17.84
2022-08-02T03:26:37.012Z,17.84
2022-08-02T03:29:10.115Z,17.71
2022-08-02T03:31:40.706Z,17.59
2022-08-02T03:34:07.754Z,17.73
2022-08-02T03:36:35.255Z,17.61
2022-08-02T03:39:02.959Z,17.48
2022-08-02T03:41:29.837Z,17.48
2022-08-02T03:43:57.242Z,17.37
2022-08-02T03:46:25.228Z,17.58
2022-08-02T03:48:52.801Z,17.55
2022-08-02T03:51:20.102Z,17.36
2022-08-02T03:53:48.084Z,17.35
2022-08-02T03:56:16.308Z,17.70
2022-08-02T03:58:48.511Z,17.52
2022-08-02T04:01:16.463Z,17.56
2022-08-02T04:03:43.329Z,17.48
2022-08-02T04:06:09.957Z,17.29
2022-08-02T04:08:38.383Z,17.24
2022-08-02T04:11:24.671Z,17.26
2022-08-02T04:13:51.920Z,17.13
2022-08-02T04:16:23.971Z,17.10
2022-08-02T04:18:58.830Z,17.12
2022-08-02T04:21:49.069Z,17.31
2022-08-02T04:24:18.969Z,17.27
2022-08-02T04:26:48.849Z,17.13
2022-08-02T04:29:18.271Z,17.24
2022-08-02T04:31:45.115Z,17.12
2022-08-02T04:34:14.976Z,17.41
2022-08-02T04:36:43.187Z,17.52
2022-08-02T04:39:10.435Z,17.76
2022-08-02T04:41:45.103Z,17.91
2022-08-02T04:44:13.077Z,17.89
2022-08-02T04:46:40.737Z,17.78
2022-08-02T04:49:07.841Z,17.58
2022-08-02T04:51:38.033Z,17.48
2022-08-02T04:54:09.694Z,17.42
2022-08-02T04:56:38.334Z,17.64
2022-08-02T04:59:05.654Z,17.73
2022-08-02T05:01:32.529Z,17.66
2022-08-02T05:03:59.625Z,17.67
2022-08-02T05:06:26.515Z,17.53
2022-08-02T05:08:53.848Z,17.73
2022-08-02T05:11:34.421Z,18.00
2022-08-02T05:14:04.274Z,18.01
2022-08-02T05:16:32.194Z,17.79
2022-08-02T05:19:00.890Z,17.94
2022-08-02T05:21:27.968Z,17.96
2022-08-02T05:23:54.684Z,18.03
2022-08-02T05:26:21.397Z,18.04
2022-08-02T05:28:48.206Z,17.91
2022-08-02T05:31:14.950Z,18.19
2022-08-02T05:33:42.034Z,18.21
2022-08-02T05:36:11.369Z,18.29
2022-08-02T05:38:38.308Z,18.54
2022-08-02T05:41:05.981Z,18.46
2022-08-02T05:43:32.838Z,18.66
2022-08-02T05:45:59.805Z,18.62
2022-08-02T05:48:32.375Z,18.76
2022-08-02T05:51:23.436Z,18.85
2022-08-02T05:53:52.948Z,18.89
2022-08-02T05:56:33.688Z,18.77
2022-08-02T05:59:33.759Z,18.79
2022-08-02T06:02:05.170Z,18.96
2022-08-02T06:04:52.994Z,19.06
2022-08-02T06:07:21.493Z,19.08
2022-08-02T06:09:49.367Z,19.17
2022-08-02T06:12:17.381Z,19.31
2022-08-02T06:14:44.932Z,19.22
2022-08-02T06:17:11.952Z,19.39
2022-08-02T06:19:51.209Z,19.42
2022-08-02T06:22:35.841Z,19.33
2022-08-02T06:25:04.647Z,19.59
2022-08-02T06:27:32.080Z,19.59
2022-08-02T06:29:58.815Z,19.63
2022-08-02T06:32:27.044Z,19.67
2022-08-02T06:34:54.089Z,20.00
2022-08-02T06:37:41.841Z,19.98
2022-08-02T06:40:18.744Z,19.89
2022-08-02T06:42:59.198Z,19.97
2022-08-02T06:45:25.922Z,20.11
2022-08-02T06:47:52.598Z,20.24
2022-08-02T06:50:19.436Z,20.37
2022-08-02T06:52:46.229Z,20.41
2022-08-02T06:55:12.909Z,20.30
2022-08-02T06:57:39.583Z,20.24
2022-08-02T07:00:09.144Z,20.18
2022-08-02T07:02:36.768Z,20.38
2022-08-02T07:05:04.625Z,20.61
2022-08-02T07:07:31.337Z,20.57
2022-08-02T07:10:01.328Z,20.57
2022-08-02T07:12:29.995Z,20.55
2022-08-02T07:14:57.399Z,20.58
2022-08-02T07:17:24.122Z,20.63
2022-08-02T07:19:50.790Z,20.70
2022-08-02T07:22:19.269Z,20.87
2022-08-02T07:24:45.933Z,20.84
2022-08-02T07:27:13.355Z,20.90
2022-08-02T07:29:46.899Z,20.94
2022-08-02T07:32:25.654Z,20.96
2022-08-02T07:34:55.061Z,20.94
2022-08-02T07:37:54.028Z,20.97
2022-08-02T07:40:19.849Z,21.05
2022-08-02T07:42:57.793Z,21.17
2022-08-02T07:45:29.561Z,21.16
2022-08-02T07:47:57.021Z,21.14
2022-08-02T07:50:24.649Z,21.25
2022-08-02T07:52:57.829Z,21.32
2022-08-02T07:55:31.167Z,21.40
2022-08-02T07:58:11.141Z,21.45
2022-08-02T08:00:40.883Z,21.47
2022-08-02T08:03:11.118Z,21.61
2022-08-02T08:05:37.856Z,21.70
2022-08-02T08:08:05.983Z,21.62
2022-08-02T08:10:32.833Z,21.61
2022-08-02T08:12:59.522Z,21.66
2022-08-02T08:15:26.215Z,21.72
2022-08-02T08:17:52.800Z,21.85
2022-08-02T08:20:19.464Z,21.87
2022-08-02T08:22:46.145Z,22.00
2022-08-02T08:25:12.896Z,22.05
2022-08-02T08:27:52.093Z,22.07
2022-08-02T08:30:20.606Z,22.17
2022-08-02T08:32:47.476Z,22.30
2022-08-02T08:35:14.771Z,22.30
2022-08-02T08:37:41.784Z,22.27
2022-08-02T08:40:10.138Z,22.24
2022-08-02T08:42:38.199Z,22.32
2022-08-02T08:45:06.397Z,22.36
2022-08-02T08:47:38.746Z,22.34
2022-08-02T08:50:12.763Z,22.37
2022-08-02T08:52:49.305Z,22.34
2022-08-02T08:55:16.172Z,22.48
2022-08-02T08:57:43.736Z,22.45
2022-08-02T09:00:16.155Z,22.41
2022-08-02T09:02:44.085Z,22.55
2022-08-02T09:05:12.130Z,22.51
2022-08-02T09:07:38.899Z,22.56
2022-08-02T09:10:33.667Z,22.67
2022-08-02T09:13:38.419Z,22.79
2022-08-02T09:16:12.952Z,22.94
2022-08-02T09:18:46.333Z,22.86
2022-08-02T09:21:17.029Z,23.06
2022-08-02T09:23:48.163Z,23.09
2022-08-02T09:26:19.676Z,23.16
2022-08-02T09:28:49.992Z,23.33
2022-08-02T09:31:23.827Z,23.38
2022-08-02T09:33:55.308Z,23.40
2022-08-02T09:36:23.674Z,23.42
2022-08-02T09:39:02.330Z,23.43
2022-08-02T09:41:35.024Z,23.60
2022-08-02T09:44:06.379Z,23.82
2022-08-02T09:46:37.825Z,23.80
2022-08-02T09:49:19.636Z,23.87
2022-08-02T09:51:49.694Z,23.92
2022-08-02T09:54:21.726Z,23.97
2022-08-02T09:56:53.581Z,24.13
2022-08-02T09:59:22.314Z,24.39
2022-08-02T10:01:51.487Z,24.49
2022-08-02T10:04:30.592Z,24.78
2022-08-02T10:06:59.543Z,24.67
2022-08-02T10:09:28.919Z,24.75
2022-08-02T10:11:55.875Z,24.56
2022-08-02T10:14:23.996Z,24.66
2022-08-02T10:16:51.883Z,24.69
2022-08-02T10:19:18.526Z,24.53
2022-08-02T10:22:07.043Z,24.57
2022-08-02T10:24:37.020Z,24.63
2022-08-02T10:27:04.469Z,24.58
2022-08-02T10:29:50.550Z,24.70
2022-08-02T10:32:28.488Z,24.73
2022-08-02T10:35:18.808Z,24.71
2022-08-02T10:37:53.192Z,24.70
2022-08-02T10:40:28.823Z,24.73
2022-08-02T10:43:00.590Z,24.90
2022-08-02T10:45:28.635Z,24.88
2022-08-02T10:47:59.742Z,24.98
2022-08-02T10:50:45.490Z,25.04
2022-08-02T10:53:35.025Z,25.17
2022-08-02T10:56:03.924Z,25.17
2022-08-02T10:58:32.614Z,25.26
2022-08-02T11:01:06.561Z,25.26
2022-08-02T11:03:39.655Z,25.22
2022-08-02T11:06:25.905Z,25.37
2022-08-02T11:09:33.957Z,25.30
2022-08-02T11:12:14.349Z,25.31
2022-08-02T11:14:44.694Z,25.40
2022-08-02T11:17:11.342Z,25.41
2022-08-02T11:20:12.160Z,25.67
2022-08-02T11:22:43.806Z,25.82
2022-08-02T11:25:22.496Z,25.88
2022-08-02T11:27:53.606Z,26.05
2022-08-02T11:30:26.618Z,26.05
2022-08-02T11:32:58.340Z,25.90
2022-08-02T11:35:35.997Z,25.85
2022-08-02T11:38:20.366Z,25.79
2022-08-02T11:40:48.354Z,25.88
2022-08-02T11:43:27.399Z,25.96
2022-08-02T11:45:56.203Z,25.91
2022-08-02T11:48:39.626Z,26.07
2022-08-02T11:51:11.860Z,26.29
2022-08-02T11:53:51.267Z,26.46
2022-08-02T11:56:25.136Z,26.38
2022-08-02T11:59:14.392Z,26.30
2022-08-02T12:01:45.786Z,26.53
2022-08-02T12:04:17.740Z,26.59
2022-08-02T12:06:44.735Z,26.54
2022-08-02T12:09:18.739Z,26.42
2022-08-02T12:11:50.031Z,26.37
2022-08-02T12:14:17.314Z,26.27
2022-08-02T12:17:02.613Z,26.16
2022-08-02T12:19:29.578Z,26.18
2022-08-02T12:22:16.393Z,26.03
2022-08-02T12:24:52.608Z,26.08
2022-08-02T12:27:36.836Z,26.06
2022-08-02T12:30:10.552Z,26.15
2022-08-02T12:32:37.888Z,26.31
2022-08-02T12:35:26.458Z,26.31
2022-08-02T12:37:54.092Z,26.40
2022-08-02T12:40:30.614Z,26.58
2022-08-02T12:43:00.497Z,26.40
2022-08-02T12:45:39.355Z,26.40
2022-08-02T12:48:08.186Z,26.48
2022-08-02T12:50:37.410Z,26.64
2022-08-02T12:53:10.119Z,26.59
2022-08-02T12:55:59.817Z,26.55
2022-08-02T12:58:29.894Z,26.58
2022-08-02T13:00:59.285Z,26.63
2022-08-02T13:04:11.062Z,26.58
2022-08-02T13:06:40.716Z,26.75
2022-08-02T13:09:00.495Z,26.62
2022-08-02T13:11:28.008Z,26.62
2022-08-02T13:13:54.977Z,26.69
2022-08-02T13:16:30.754Z,26.76
2022-08-02T13:19:00.259Z,26.73
2022-08-02T13:21:41.371Z,26.66
2022-08-02T13:24:32.752Z,26.68
2022-08-02T13:27:04.648Z,26.64
2022-08-02T13:29:34.707Z,26.63
2022-08-02T13:32:01.346Z,26.63
2022-08-02T13:34:28.066Z,26.53
2022-08-02T13:36:54.961Z,26.49
2022-08-02T13:39:21.647Z,26.53
2022-08-02T13:41:48.628Z,26.60
2022-08-02T13:44:15.472Z,26.59
2022-08-02T13:46:45.384Z,26.67
2022-08-02T13:49:49.849Z,26.55
2022-08-02T13:52:11.604Z,26.55
2022-08-02T13:54:38.606Z,26.55
2022-08-02T13:57:05.303Z,26.43
2022-08-02T13:59:57.078Z,26.42
2022-08-02T14:02:28.614Z,26.48
2022-08-02T14:04:57.242Z,26.51
2022-08-02T14:07:23.910Z,26.52
2022-08-02T14:09:51.524Z,26.57
2022-08-02T14:12:19.517Z,26.66
2022-08-02T14:14:46.234Z,26.73
2022-08-02T14:17:13.582Z,26.71
2022-08-02T14:19:40.196Z,26.72
2022-08-02T14:22:11.260Z,26.78
2022-08-02T14:24:39.868Z,26.77
2022-08-02T14:27:06.803Z,26.73
2022-08-02T14:29:33.490Z,26.74
2022-08-02T14:32:00.516Z,26.86
2022-08-02T14:34:27.294Z,26.85
2022-08-02T14:36:55.616Z,26.90
2022-08-02T14:39:22.680Z,26.95
2022-08-02T14:41:59.466Z,26.86
2022-08-02T14:44:28.814Z,26.92
2022-08-02T14:46:55.953Z,26.93
2022-08-02T14:49:25.388Z,26.91
2022-08-02T14:51:53.898Z,26.92
2022-08-02T14:54:30.259Z,27.07
2022-08-02T14:56:59.108Z,27.31
2022-08-02T14:59:25.997Z,27.40
2022-08-02T15:01:53.357Z,27.32
2022-08-02T15:04:20.447Z,27.34
2022-08-02T15:06:47.395Z,27.30
2022-08-02T15:09:14.127Z,27.49
2022-08-02T15:11:47.753Z,27.50
2022-08-02T15:14:25.756Z,27.43
2022-08-02T15:16:56.940Z,27.49
2022-08-02T15:19:28.735Z,27.57
2022-08-02T15:22:15.737Z,27.55
2022-08-02T15:24:44.885Z,27.65
2022-08-02T15:27:13.910Z,27.52
2022-08-02T15:29:41.261Z,27.68
2022-08-02T15:32:09.258Z,27.70
2022-08-02T15:34:36.395Z,27.72
2022-08-02T15:37:03.399Z,27.74
2022-08-02T15:39:30.315Z,27.73
2022-08-02T15:41:57.328Z,27.81
2022-08-02T15:44:24.983Z,27.87
2022-08-02T15:46:53.250Z,27.83
2022-08-02T15:49:20.953Z,27.91
2022-08-02T15:51:47.721Z,27.94
2022-08-02T15:54:14.399Z,27.88
2022-08-02T15:56:41.080Z,27.90
2022-08-02T15:59:07.930Z,28.04
2022-08-02T16:01:37.933Z,28.19
2022-08-02T16:04:07.093Z,28.19
2022-08-02T16:06:37.451Z,28.27
2022-08-02T16:09:04.343Z,28.33
2022-08-02T16:11:31.082Z,28.42
2022-08-02T16:13:59.019Z,28.39
2022-08-02T16:16:28.836Z,28.44
2022-08-02T16:18:55.963Z,28.52
2022-08-02T16:21:23.606Z,28.58
2022-08-02T16:23:58.559Z,28.50
2022-08-02T16:26:34.750Z,28.51
2022-08-02T16:29:03.562Z,28.52
2022-08-02T16:31:43.038Z,28.38
2022-08-02T16:34:10.240Z,28.43
2022-08-02T16:36:37.450Z,28.55
2022-08-02T16:39:05.420Z,28.53
2022-08-02T16:41:51.196Z,28.68
2022-08-02T16:44:29.554Z,28.84
2022-08-02T16:47:01.847Z,28.91
2022-08-02T16:50:05.246Z,28.94
2022-08-02T16:52:16.818Z,29.07
2022-08-02T16:54:46.246Z,29.06
2022-08-02T16:57:17.035Z,29.16
2022-08-02T16:59:58.305Z,29.31
2022-08-02T17:02:26.233Z,29.26
2022-08-02T17:04:52.986Z,29.22
2022-08-02T17:08:07.352Z,29.26
2022-08-02T17:10:11.118Z,29.27
2022-08-02T17:12:38.813Z,29.28
2022-08-02T17:16:08.454Z,29.37
2022-08-02T17:17:56.280Z,29.49
2022-08-02T17:20:24.454Z,29.54
2022-08-02T17:22:55.088Z,29.57
2022-08-02T17:25:32.049Z,29.53
2022-08-02T17:27:59.225Z,29.66
2022-08-02T17:30:26.717Z,29.68
2022-08-02T17:32:54.395Z,29.59
2022-08-02T17:35:24.816Z,29.55
2022-08-02T17:38:00.018Z,29.36
2022-08-02T17:40:27.225Z,29.42
2022-08-02T17:42:54.035Z,29.38
2022-08-02T17:45:25.706Z,29.39
2022-08-02T17:48:07.851Z,29.35
2022-08-02T17:50:39.065Z,29.38
2022-08-02T17:53:06.109Z,29.38
2022-08-02T17:55:33.465Z,29.37
2022-08-02T17:58:02.666Z,29.46
2022-08-02T18:00:39.191Z,29.39
2022-08-02T18:03:10.383Z,29.39
2022-08-02T18:05:53.419Z,29.41
2022-08-02T18:08:23.618Z,29.43
2022-08-02T18:10:52.737Z,29.32
2022-08-02T18:13:19.820Z,29.25
2022-08-02T18:15:46.577Z,29.30
2022-08-02T18:18:14.960Z,29.26
2022-08-02T18:20:45.060Z,29.19
2022-08-02T18:23:13.598Z,29.12
2022-08-02T18:25:45.969Z,29.05
2022-08-02T18:28:15.454Z,28.96
2022-08-02T18:30:42.686Z,28.89
2022-08-02T18:33:57.501Z,28.77
2022-08-02T18:35:59.183Z,28.68
2022-08-02T18:38:26.991Z,28.56
2022-08-02T18:40:55.290Z,28.47
2022-08-02T18:43:25.101Z,28.32
2022-08-02T18:46:07.391Z,28.33
2022-08-02T18:48:40.031Z,28.21
2022-08-02T18:51:27.208Z,28.06
2022-08-02T18:54:04.266Z,28.04
2022-08-02T18:56:32.721Z,27.85
2022-08-02T19:01:50.657Z,27.64
2022-08-02T19:04:27.402Z,27.56
2022-08-02T19:06:56.057Z,27.46
2022-08-02T19:09:23.886Z,27.28
2022-08-02T19:11:51.361Z,27.09
2022-08-02T19:14:42.031Z,26.97
2022-08-02T19:17:53.989Z,26.88
2022-08-02T19:20:19.189Z,26.72
2022-08-02T19:22:46.719Z,26.62
2022-08-02T19:25:27.761Z,26.60
2022-08-02T19:27:55.161Z,26.55
2022-08-02T19:30:22.492Z,26.43
2022-08-02T19:32:58.923Z,26.38
2022-08-02T19:35:30.706Z,26.26
2022-08-02T19:38:07.343Z,26.19
2022-08-02T19:40:41.957Z,26.15
2022-08-02T19:44:27.031Z,26.13
2022-08-02T19:46:19.633Z,26.10
2022-08-02T19:48:55.107Z,26.05
2022-08-02T19:51:55.269Z,26.00
2022-08-02T19:54:10.501Z,25.95
2022-08-02T19:56:37.781Z,25.92
2022-08-02T19:59:12.703Z,25.79
2022-08-02T20:01:42.122Z,25.73
2022-08-02T20:04:12.969Z,25.73
2022-08-02T20:06:46.048Z,25.64
2022-08-02T20:09:22.965Z,25.62
2022-08-02T20:11:54.553Z,25.57
2022-08-02T20:14:27.710Z,25.54
2022-08-02T20:16:58.175Z,25.51
2022-08-02T20:19:25.218Z,25.44
2022-08-02T20:24:55.879Z,25.42
2022-08-02T20:27:23.921Z,25.43
2022-08-02T20:29:52.682Z,25.39
2022-08-02T20:32:25.537Z,25.38
2022-08-02T20:34:52.459Z,25.36
2022-08-02T20:37:56.349Z,25.34
2022-08-02T20:40:07.041Z,25.34
2022-08-02T20:42:34.581Z,25.34
2022-08-02T20:45:01.699Z,25.27
2022-08-02T20:50:33.257Z,25.24
2022-08-02T20:53:01.241Z,25.16
2022-08-02T20:55:31.295Z,25.09
2022-08-02T20:58:01.433Z,25.05
2022-08-02T21:00:30.221Z,25.00
2022-08-02T21:02:57.673Z,24.98
2022-08-02T21:05:26.936Z,24.98
2022-08-02T21:08:16.012Z,25.02
2022-08-02T21:10:50.423Z,25.00
2022-08-02T21:13:23.155Z,24.95
2022-08-02T21:15:51.602Z,24.94
2022-08-02T21:18:21.219Z,24.91
2022-08-02T21:20:56.533Z,24.89
2022-08-02T21:23:24.162Z,24.86
2022-08-02T21:25:57.401Z,24.84
2022-08-02T21:31:15.521Z,24.75
2022-08-02T21:33:56.747Z,24.67
2022-08-02T21:36:31.753Z,24.69
2022-08-02T21:39:04.413Z,24.66
2022-08-02T21:41:39.066Z,24.49
2022-08-02T21:44:15.952Z,24.51
2022-08-02T21:46:49.360Z,24.54
2022-08-02T21:49:20.791Z,24.52
2022-08-02T21:51:54.577Z,24.58
2022-08-02T21:54:22.021Z,24.61
2022-08-02T21:56:49.989Z,24.58
2022-08-02T21:59:19.327Z,24.52
2022-08-02T22:01:54.199Z,24.20
2022-08-02T22:04:24.273Z,24.02
2022-08-02T22:06:51.070Z,24.06
2022-08-02T22:09:43.452Z,23.79
2022-08-02T22:12:09.780Z,23.82
2022-08-02T22:17:46.815Z,23.86
2022-08-02T22:20:15.354Z,23.90
2022-08-02T22:22:42.455Z,23.67
2022-08-02T22:25:09.995Z,23.65
2022-08-02T22:28:36.139Z,23.71
2022-08-02T22:30:35.295Z,23.73
2022-08-02T22:33:21.110Z,23.66
2022-08-02T22:36:00.473Z,23.54
2022-08-02T22:38:27.250Z,23.49
2022-08-02T22:40:53.902Z,23.36
2022-08-02T22:43:22.966Z,23.42
2022-08-02T22:45:50.683Z,23.48
2022-08-02T22:48:17.610Z,23.39
2022-08-02T22:50:44.411Z,23.30
2022-08-02T22:53:11.110Z,23.33
2022-08-02T22:55:41.610Z,23.35
2022-08-02T22:58:09.322Z,23.23
2022-08-02T22:58:59.384Z,27.77
2022-08-02T22:59:07.507Z,25.26
2022-08-02T22:59:12.256Z,24.85
2022-08-02T22:59:12.331Z,23.73
2022-08-02T23:00:36.089Z,23.26
2022-08-02T23:03:03.081Z,23.20
2022-08-02T23:05:33.645Z,23.29
2022-08-02T23:08:00.333Z,23.33
2022-08-02T23:10:27.007Z,23.31
2022-08-02T23:12:56.469Z,23.26
2022-08-02T23:15:23.657Z,23.18
2022-08-02T23:18:08.892Z,22.97
2022-08-02T23:20:35.380Z,22.92
2022-08-02T23:23:02.248Z,22.96
2022-08-02T23:25:29.205Z,22.97
2022-08-02T23:27:55.863Z,22.94
2022-08-02T23:30:22.579Z,22.91
2022-08-02T23:32:49.222Z,22.77
2022-08-02T23:35:17.439Z,22.75
2022-08-02T23:37:59.160Z,22.77
2022-08-02T23:40:40.551Z,22.71
2022-08-02T23:43:14.212Z,22.69
2022-08-02T23:45:48.156Z,22.69
2022-08-02T23:48:15.141Z,22.63
2022-08-02T23:50:41.755Z,22.57
2022-08-02T23:53:08.437Z,22.53
2022-08-02T23:55:35.042Z,22.41
2022-08-02T23:58:01.760Z,22.33
